sensor_id;sensor_type;location;lat;lon;timestamp;temperature;humidity
83553;DHT22;73510;50.866;5.420;2024-02-26T00:00:00;9.00;65.40
83553;DHT22;73510;50.866;5.420;2024-02-26T00:02:26;9.00;66.00
83553;DHT22;73510;50.866;5.420;2024-02-26T00:04:52;8.90;66.10
83553;DHT22;73510;50.866;5.420;2024-02-26T00:07:17;8.90;66.00
83553;DHT22;73510;50.866;5.420;2024-02-26T00:09:43;8.90;66.20
83553;DHT22;73510;50.866;5.420;2024-02-26T00:12:09;8.80;66.50
83553;DHT22;73510;50.866;5.420;2024-02-26T00:14:34;8.80;66.00
83553;DHT22;73510;50.866;5.420;2024-02-26T00:17:02;8.80;66.50
83553;DHT22;73510;50.866;5.420;2024-02-26T00:19:28;8.70;66.70
83553;DHT22;73510;50.866;5.420;2024-02-26T00:21:53;8.70;67.20
83553;DHT22;73510;50.866;5.420;2024-02-26T00:24:21;8.70;67.10
83553;DHT22;73510;50.866;5.420;2024-02-26T00:26:47;8.60;67.20
83553;DHT22;73510;50.866;5.420;2024-02-26T00:29:18;8.60;67.20
83553;DHT22;73510;50.866;5.420;2024-02-26T00:31:44;8.60;67.00
83553;DHT22;73510;50.866;5.420;2024-02-26T00:34:10;8.60;67.10
83553;DHT22;73510;50.866;5.420;2024-02-26T00:36:36;8.60;67.50
83553;DHT22;73510;50.866;5.420;2024-02-26T00:39:01;8.60;67.40
83553;DHT22;73510;50.866;5.420;2024-02-26T00:41:29;8.60;67.90
83553;DHT22;73510;50.866;5.420;2024-02-26T00:43:55;8.50;67.80
83553;DHT22;73510;50.866;5.420;2024-02-26T00:46:21;8.50;67.90
83553;DHT22;73510;50.866;5.420;2024-02-26T00:48:46;8.50;68.20
83553;DHT22;73510;50.866;5.420;2024-02-26T00:51:12;8.50;68.30
83553;DHT22;73510;50.866;5.420;2024-02-26T00:53:37;8.50;68.40
83553;DHT22;73510;50.866;5.420;2024-02-26T00:56:03;8.40;68.20
83553;DHT22;73510;50.866;5.420;2024-02-26T00:58:29;8.40;68.60
83553;DHT22;73510;50.866;5.420;2024-02-26T01:00:54;8.40;68.70
83553;DHT22;73510;50.866;5.420;2024-02-26T01:03:20;8.40;68.30
83553;DHT22;73510;50.866;5.420;2024-02-26T01:05:46;8.30;68.90
83553;DHT22;73510;50.866;5.420;2024-02-26T01:08:12;8.30;69.30
83553;DHT22;73510;50.866;5.420;2024-02-26T01:10:38;8.30;69.10
83553;DHT22;73510;50.866;5.420;2024-02-26T01:13:03;8.30;69.30
83553;DHT22;73510;50.866;5.420;2024-02-26T01:15:29;8.20;69.30
83553;DHT22;73510;50.866;5.420;2024-02-26T01:17:55;8.20;69.30
83553;DHT22;73510;50.866;5.420;2024-02-26T01:20:20;8.30;69.10
83553;DHT22;73510;50.866;5.420;2024-02-26T01:22:47;8.20;69.50
83553;DHT22;73510;50.866;5.420;2024-02-26T01:25:13;8.20;69.60
83553;DHT22;73510;50.866;5.420;2024-02-26T01:27:39;8.20;69.80
83553;DHT22;73510;50.866;5.420;2024-02-26T01:30:07;8.20;69.60
83553;DHT22;73510;50.866;5.420;2024-02-26T01:32:32;8.20;69.70
83553;DHT22;73510;50.866;5.420;2024-02-26T01:34:58;8.20;69.80
83553;DHT22;73510;50.866;5.420;2024-02-26T01:37:24;8.10;71.10
83553;DHT22;73510;50.866;5.420;2024-02-26T01:39:50;8.10;70.80
83553;DHT22;73510;50.866;5.420;2024-02-26T01:42:15;8.10;70.50
83553;DHT22;73510;50.866;5.420;2024-02-26T01:44:41;8.10;70.70
83553;DHT22;73510;50.866;5.420;2024-02-26T01:47:11;8.10;70.60
83553;DHT22;73510;50.866;5.420;2024-02-26T01:49:37;8.10;70.70
83553;DHT22;73510;50.866;5.420;2024-02-26T01:52:04;8.10;70.50
83553;DHT22;73510;50.866;5.420;2024-02-26T01:54:32;8.10;70.80
83553;DHT22;73510;50.866;5.420;2024-02-26T01:56:59;8.00;70.80
83553;DHT22;73510;50.866;5.420;2024-02-26T01:59:25;8.00;70.70
83553;DHT22;73510;50.866;5.420;2024-02-26T02:01:55;8.10;70.80
83553;DHT22;73510;50.866;5.420;2024-02-26T02:04:23;8.00;70.50
83553;DHT22;73510;50.866;5.420;2024-02-26T02:06:50;8.00;70.70
83553;DHT22;73510;50.866;5.420;2024-02-26T02:09:16;8.00;70.90
83553;DHT22;73510;50.866;5.420;2024-02-26T02:11:42;8.00;70.80
83553;DHT22;73510;50.866;5.420;2024-02-26T02:14:07;8.00;71.20
83553;DHT22;73510;50.866;5.420;2024-02-26T02:16:33;8.00;71.00
83553;DHT22;73510;50.866;5.420;2024-02-26T02:18:59;8.00;71.20
83553;DHT22;73510;50.866;5.420;2024-02-26T02:21:25;8.00;71.00
83553;DHT22;73510;50.866;5.420;2024-02-26T02:23:50;8.00;71.40
83553;DHT22;73510;50.866;5.420;2024-02-26T02:26:17;8.00;71.10
83553;DHT22;73510;50.866;5.420;2024-02-26T02:28:44;8.00;71.20
83553;DHT22;73510;50.866;5.420;2024-02-26T02:31:10;8.00;71.20
83553;DHT22;73510;50.866;5.420;2024-02-26T02:33:36;8.00;71.40
83553;DHT22;73510;50.866;5.420;2024-02-26T02:36:02;8.00;71.20
83553;DHT22;73510;50.866;5.420;2024-02-26T02:38:28;8.00;71.30
83553;DHT22;73510;50.866;5.420;2024-02-26T02:40:55;8.00;71.40
83553;DHT22;73510;50.866;5.420;2024-02-26T02:43:21;8.00;71.50
83553;DHT22;73510;50.866;5.420;2024-02-26T02:45:47;8.00;71.40
83553;DHT22;73510;50.866;5.420;2024-02-26T02:48:13;8.00;71.50
83553;DHT22;73510;50.866;5.420;2024-02-26T02:50:38;8.00;71.60
83553;DHT22;73510;50.866;5.420;2024-02-26T02:53:04;8.00;71.60
83553;DHT22;73510;50.866;5.420;2024-02-26T02:55:30;7.90;71.70
83553;DHT22;73510;50.866;5.420;2024-02-26T02:57:56;7.90;71.70
83553;DHT22;73510;50.866;5.420;2024-02-26T03:00:21;7.90;71.70
83553;DHT22;73510;50.866;5.420;2024-02-26T03:02:49;7.90;72.10
83553;DHT22;73510;50.866;5.420;2024-02-26T03:05:15;7.80;72.20
83553;DHT22;73510;50.866;5.420;2024-02-26T03:07:41;7.80;72.60
83553;DHT22;73510;50.866;5.420;2024-02-26T03:10:06;7.80;72.20
83553;DHT22;73510;50.866;5.420;2024-02-26T03:12:33;7.80;71.80
83553;DHT22;73510;50.866;5.420;2024-02-26T03:15:00;7.80;72.10
83553;DHT22;73510;50.866;5.420;2024-02-26T03:17:29;7.80;72.20
83553;DHT22;73510;50.866;5.420;2024-02-26T03:19:54;7.70;72.20
83553;DHT22;73510;50.866;5.420;2024-02-26T03:22:20;7.80;72.50
83553;DHT22;73510;50.866;5.420;2024-02-26T03:24:47;7.80;72.70
83553;DHT22;73510;50.866;5.420;2024-02-26T03:27:13;7.80;72.50
83553;DHT22;73510;50.866;5.420;2024-02-26T03:29:40;7.80;72.60
83553;DHT22;73510;50.866;5.420;2024-02-26T03:32:06;7.80;72.10
83553;DHT22;73510;50.866;5.420;2024-02-26T03:34:32;7.80;72.50
83553;DHT22;73510;50.866;5.420;2024-02-26T03:37:01;7.80;72.20
83553;DHT22;73510;50.866;5.420;2024-02-26T03:39:27;7.70;72.20
83553;DHT22;73510;50.866;5.420;2024-02-26T03:41:52;7.80;72.30
83553;DHT22;73510;50.866;5.420;2024-02-26T03:44:18;7.80;72.50
83553;DHT22;73510;50.866;5.420;2024-02-26T03:46:44;7.80;72.30
83553;DHT22;73510;50.866;5.420;2024-02-26T03:49:11;7.80;72.30
83553;DHT22;73510;50.866;5.420;2024-02-26T03:51:37;7.80;72.40
83553;DHT22;73510;50.866;5.420;2024-02-26T03:54:03;7.70;72.30
83553;DHT22;73510;50.866;5.420;2024-02-26T03:56:28;7.80;72.20
83553;DHT22;73510;50.866;5.420;2024-02-26T03:58:54;7.80;72.10
83553;DHT22;73510;50.866;5.420;2024-02-26T04:01:20;7.80;72.30
83553;DHT22;73510;50.866;5.420;2024-02-26T04:03:46;7.70;72.00
83553;DHT22;73510;50.866;5.420;2024-02-26T04:06:12;7.80;72.00
83553;DHT22;73510;50.866;5.420;2024-02-26T04:08:40;7.70;72.20
83553;DHT22;73510;50.866;5.420;2024-02-26T04:11:06;7.70;72.10
83553;DHT22;73510;50.866;5.420;2024-02-26T04:13:36;7.70;72.00
83553;DHT22;73510;50.866;5.420;2024-02-26T04:16:04;7.70;71.90
83553;DHT22;73510;50.866;5.420;2024-02-26T04:18:31;7.70;72.00
83553;DHT22;73510;50.866;5.420;2024-02-26T04:20:57;7.70;72.00
83553;DHT22;73510;50.866;5.420;2024-02-26T04:23:23;7.60;71.80
83553;DHT22;73510;50.866;5.420;2024-02-26T04:25:49;7.60;71.90
83553;DHT22;73510;50.866;5.420;2024-02-26T04:28:15;7.60;71.90
83553;DHT22;73510;50.866;5.420;2024-02-26T04:30:41;7.60;72.10
83553;DHT22;73510;50.866;5.420;2024-02-26T04:33:07;7.60;72.20
83553;DHT22;73510;50.866;5.420;2024-02-26T04:35:32;7.60;72.10
83553;DHT22;73510;50.866;5.420;2024-02-26T04:38:00;7.60;72.30
83553;DHT22;73510;50.866;5.420;2024-02-26T04:40:26;7.60;72.60
83553;DHT22;73510;50.866;5.420;2024-02-26T04:42:52;7.60;72.30
83553;DHT22;73510;50.866;5.420;2024-02-26T04:45:18;7.60;72.30
83553;DHT22;73510;50.866;5.420;2024-02-26T04:47:43;7.60;72.00
83553;DHT22;73510;50.866;5.420;2024-02-26T04:50:09;7.60;72.10
83553;DHT22;73510;50.866;5.420;2024-02-26T04:52:35;7.60;72.10
83553;DHT22;73510;50.866;5.420;2024-02-26T04:55:02;7.60;72.20
83553;DHT22;73510;50.866;5.420;2024-02-26T04:57:28;7.60;72.20
83553;DHT22;73510;50.866;5.420;2024-02-26T04:59:53;7.60;72.10
83553;DHT22;73510;50.866;5.420;2024-02-26T05:02:19;7.60;72.30
83553;DHT22;73510;50.866;5.420;2024-02-26T05:04:45;7.60;72.30
83553;DHT22;73510;50.866;5.420;2024-02-26T05:07:11;7.60;72.30
83553;DHT22;73510;50.866;5.420;2024-02-26T05:09:37;7.60;72.50
83553;DHT22;73510;50.866;5.420;2024-02-26T05:12:03;7.60;72.50
83553;DHT22;73510;50.866;5.420;2024-02-26T05:14:29;7.60;72.50
83553;DHT22;73510;50.866;5.420;2024-02-26T05:16:55;7.60;72.50
83553;DHT22;73510;50.866;5.420;2024-02-26T05:19:21;7.60;72.10
83553;DHT22;73510;50.866;5.420;2024-02-26T05:21:47;7.60;72.20
83553;DHT22;73510;50.866;5.420;2024-02-26T05:24:15;7.60;72.40
83553;DHT22;73510;50.866;5.420;2024-02-26T05:26:45;7.60;72.30
83553;DHT22;73510;50.866;5.420;2024-02-26T05:29:11;7.60;72.60
83553;DHT22;73510;50.866;5.420;2024-02-26T05:31:36;7.60;72.40
83553;DHT22;73510;50.866;5.420;2024-02-26T05:34:02;7.60;72.30
83553;DHT22;73510;50.866;5.420;2024-02-26T05:36:28;7.60;72.50
83553;DHT22;73510;50.866;5.420;2024-02-26T05:38:59;7.60;72.60
83553;DHT22;73510;50.866;5.420;2024-02-26T05:41:25;7.60;72.50
83553;DHT22;73510;50.866;5.420;2024-02-26T05:43:52;7.60;72.60
83553;DHT22;73510;50.866;5.420;2024-02-26T05:46:20;7.60;72.70
83553;DHT22;73510;50.866;5.420;2024-02-26T05:48:51;7.60;72.30
83553;DHT22;73510;50.866;5.420;2024-02-26T05:51:17;7.60;72.20
83553;DHT22;73510;50.866;5.420;2024-02-26T05:53:43;7.60;72.50
83553;DHT22;73510;50.866;5.420;2024-02-26T05:56:08;7.60;72.30
83553;DHT22;73510;50.866;5.420;2024-02-26T05:58:34;7.60;72.50
83553;DHT22;73510;50.866;5.420;2024-02-26T06:01:00;7.60;72.70
83553;DHT22;73510;50.866;5.420;2024-02-26T06:03:26;7.60;72.90
83553;DHT22;73510;50.866;5.420;2024-02-26T06:05:52;7.60;73.00
83553;DHT22;73510;50.866;5.420;2024-02-26T06:08:17;7.50;73.00
83553;DHT22;73510;50.866;5.420;2024-02-26T06:10:43;7.60;73.00
83553;DHT22;73510;50.866;5.420;2024-02-26T06:13:09;7.60;73.10
83553;DHT22;73510;50.866;5.420;2024-02-26T06:15:34;7.50;72.80
83553;DHT22;73510;50.866;5.420;2024-02-26T06:18:00;7.50;73.00
83553;DHT22;73510;50.866;5.420;2024-02-26T06:20:26;7.50;72.80
83553;DHT22;73510;50.866;5.420;2024-02-26T06:22:51;7.50;73.00
83553;DHT22;73510;50.866;5.420;2024-02-26T06:25:17;7.50;72.90
83553;DHT22;73510;50.866;5.420;2024-02-26T06:27:43;7.50;72.80
83553;DHT22;73510;50.866;5.420;2024-02-26T06:30:09;7.50;73.00
83553;DHT22;73510;50.866;5.420;2024-02-26T06:32:37;7.50;72.90
83553;DHT22;73510;50.866;5.420;2024-02-26T06:35:03;7.50;72.90
83553;DHT22;73510;50.866;5.420;2024-02-26T06:37:32;7.50;73.00
83553;DHT22;73510;50.866;5.420;2024-02-26T06:40:02;7.50;72.90
83553;DHT22;73510;50.866;5.420;2024-02-26T06:42:32;7.50;72.70
83553;DHT22;73510;50.866;5.420;2024-02-26T06:44:58;7.50;73.00
83553;DHT22;73510;50.866;5.420;2024-02-26T06:47:24;7.50;72.80
83553;DHT22;73510;50.866;5.420;2024-02-26T06:49:49;7.50;73.00
83553;DHT22;73510;50.866;5.420;2024-02-26T06:52:15;7.50;73.00
83553;DHT22;73510;50.866;5.420;2024-02-26T06:54:41;7.40;73.00
83553;DHT22;73510;50.866;5.420;2024-02-26T06:57:07;7.50;72.90
83553;DHT22;73510;50.866;5.420;2024-02-26T06:59:32;7.40;73.00
83553;DHT22;73510;50.866;5.420;2024-02-26T07:01:58;7.40;73.20
83553;DHT22;73510;50.866;5.420;2024-02-26T07:04:24;7.50;73.20
83553;DHT22;73510;50.866;5.420;2024-02-26T07:06:50;7.50;72.90
83553;DHT22;73510;50.866;5.420;2024-02-26T07:09:15;7.50;72.90
83553;DHT22;73510;50.866;5.420;2024-02-26T07:11:41;7.50;73.00
83553;DHT22;73510;50.866;5.420;2024-02-26T07:14:13;7.50;73.00
83553;DHT22;73510;50.866;5.420;2024-02-26T07:16:39;7.40;73.00
83553;DHT22;73510;50.866;5.420;2024-02-26T07:19:04;7.40;72.90
83553;DHT22;73510;50.866;5.420;2024-02-26T07:21:30;7.40;72.80
83553;DHT22;73510;50.866;5.420;2024-02-26T07:23:56;7.40;72.90
83553;DHT22;73510;50.866;5.420;2024-02-26T07:26:22;7.40;73.10
83553;DHT22;73510;50.866;5.420;2024-02-26T07:28:49;7.40;72.80
83553;DHT22;73510;50.866;5.420;2024-02-26T07:31:17;7.40;73.00
83553;DHT22;73510;50.866;5.420;2024-02-26T07:33:42;7.40;73.20
83553;DHT22;73510;50.866;5.420;2024-02-26T07:36:08;7.40;73.00
83553;DHT22;73510;50.866;5.420;2024-02-26T07:38:34;7.40;73.20
83553;DHT22;73510;50.866;5.420;2024-02-26T07:41:02;7.40;73.20
83553;DHT22;73510;50.866;5.420;2024-02-26T07:43:28;7.40;73.40
83553;DHT22;73510;50.866;5.420;2024-02-26T07:45:53;7.40;73.50
83553;DHT22;73510;50.866;5.420;2024-02-26T07:48:19;7.40;73.20
83553;DHT22;73510;50.866;5.420;2024-02-26T07:50:45;7.40;73.20
83553;DHT22;73510;50.866;5.420;2024-02-26T07:53:11;7.40;73.10
83553;DHT22;73510;50.866;5.420;2024-02-26T07:55:37;7.40;72.90
83553;DHT22;73510;50.866;5.420;2024-02-26T07:58:02;7.40;73.20
83553;DHT22;73510;50.866;5.420;2024-02-26T08:00:28;7.40;73.20
83553;DHT22;73510;50.866;5.420;2024-02-26T08:02:55;7.40;73.20
83553;DHT22;73510;50.866;5.420;2024-02-26T08:05:20;7.40;73.00
83553;DHT22;73510;50.866;5.420;2024-02-26T08:07:46;7.40;73.00
83553;DHT22;73510;50.866;5.420;2024-02-26T08:10:12;7.40;73.10
83553;DHT22;73510;50.866;5.420;2024-02-26T08:12:37;7.40;73.10
83553;DHT22;73510;50.866;5.420;2024-02-26T08:15:03;7.40;73.20
83553;DHT22;73510;50.866;5.420;2024-02-26T08:17:30;7.30;73.20
83553;DHT22;73510;50.866;5.420;2024-02-26T08:19:55;7.40;73.60
83553;DHT22;73510;50.866;5.420;2024-02-26T08:22:22;7.40;73.50
83553;DHT22;73510;50.866;5.420;2024-02-26T08:24:48;7.40;73.10
83553;DHT22;73510;50.866;5.420;2024-02-26T08:27:14;7.40;73.30
83553;DHT22;73510;50.866;5.420;2024-02-26T08:29:40;7.40;73.30
83553;DHT22;73510;50.866;5.420;2024-02-26T08:32:05;7.40;73.10
83553;DHT22;73510;50.866;5.420;2024-02-26T08:34:32;7.40;73.50
83553;DHT22;73510;50.866;5.420;2024-02-26T08:36:58;7.40;73.20
83553;DHT22;73510;50.866;5.420;2024-02-26T08:39:24;7.40;73.20
83553;DHT22;73510;50.866;5.420;2024-02-26T08:41:51;7.40;73.20
83553;DHT22;73510;50.866;5.420;2024-02-26T08:44:17;7.40;73.00
83553;DHT22;73510;50.866;5.420;2024-02-26T08:46:43;7.40;73.20
83553;DHT22;73510;50.866;5.420;2024-02-26T08:49:11;7.40;73.10
83553;DHT22;73510;50.866;5.420;2024-02-26T08:51:42;7.50;73.10
83553;DHT22;73510;50.866;5.420;2024-02-26T08:54:08;7.40;73.00
83553;DHT22;73510;50.866;5.420;2024-02-26T08:56:33;7.50;73.20
83553;DHT22;73510;50.866;5.420;2024-02-26T08:58:59;7.50;73.30
83553;DHT22;73510;50.866;5.420;2024-02-26T09:01:29;7.50;73.40
83553;DHT22;73510;50.866;5.420;2024-02-26T09:03:55;7.50;73.40
83553;DHT22;73510;50.866;5.420;2024-02-26T09:06:22;7.50;73.00
83553;DHT22;73510;50.866;5.420;2024-02-26T09:08:47;7.50;73.00
83553;DHT22;73510;50.866;5.420;2024-02-26T09:11:13;7.50;73.40
83553;DHT22;73510;50.866;5.420;2024-02-26T09:13:39;7.50;73.30
83553;DHT22;73510;50.866;5.420;2024-02-26T09:16:05;7.50;73.00
83553;DHT22;73510;50.866;5.420;2024-02-26T09:18:31;7.50;73.20
83553;DHT22;73510;50.866;5.420;2024-02-26T09:20:57;7.50;73.10
83553;DHT22;73510;50.866;5.420;2024-02-26T09:23:23;7.60;73.10
83553;DHT22;73510;50.866;5.420;2024-02-26T09:25:49;7.60;73.40
83553;DHT22;73510;50.866;5.420;2024-02-26T09:28:14;7.70;73.00
83553;DHT22;73510;50.866;5.420;2024-02-26T09:30:46;7.70;72.90
83553;DHT22;73510;50.866;5.420;2024-02-26T09:33:13;7.80;73.00
83553;DHT22;73510;50.866;5.420;2024-02-26T09:35:39;7.80;72.70
83553;DHT22;73510;50.866;5.420;2024-02-26T09:38:05;7.80;72.90
83553;DHT22;73510;50.866;5.420;2024-02-26T09:40:30;7.80;72.70
83553;DHT22;73510;50.866;5.420;2024-02-26T09:42:59;7.90;72.60
83553;DHT22;73510;50.866;5.420;2024-02-26T09:45:27;7.90;72.80
83553;DHT22;73510;50.866;5.420;2024-02-26T09:47:55;7.90;72.50
83553;DHT22;73510;50.866;5.420;2024-02-26T09:50:22;7.90;72.60
83553;DHT22;73510;50.866;5.420;2024-02-26T09:52:51;8.00;72.80
83553;DHT22;73510;50.866;5.420;2024-02-26T09:55:18;8.00;72.40
83553;DHT22;73510;50.866;5.420;2024-02-26T09:57:46;8.00;72.90
83553;DHT22;73510;50.866;5.420;2024-02-26T10:00:17;8.00;72.50
83553;DHT22;73510;50.866;5.420;2024-02-26T10:02:46;8.00;72.70
83553;DHT22;73510;50.866;5.420;2024-02-26T10:05:16;8.00;72.20
83553;DHT22;73510;50.866;5.420;2024-02-26T10:07:44;8.00;72.50
83553;DHT22;73510;50.866;5.420;2024-02-26T10:10:09;8.00;72.50
83553;DHT22;73510;50.866;5.420;2024-02-26T10:12:35;8.00;72.30
83553;DHT22;73510;50.866;5.420;2024-02-26T10:15:01;8.10;72.50
83553;DHT22;73510;50.866;5.420;2024-02-26T10:17:27;8.10;72.50
83553;DHT22;73510;50.866;5.420;2024-02-26T10:19:54;8.00;72.20
83553;DHT22;73510;50.866;5.420;2024-02-26T10:22:35;8.00;72.40
83553;DHT22;73510;50.866;5.420;2024-02-26T10:25:01;8.00;72.30
83553;DHT22;73510;50.866;5.420;2024-02-26T10:27:28;8.00;72.60
83553;DHT22;73510;50.866;5.420;2024-02-26T10:29:56;8.00;72.50
83553;DHT22;73510;50.866;5.420;2024-02-26T10:32:22;8.00;72.60
83553;DHT22;73510;50.866;5.420;2024-02-26T10:34:48;8.00;72.20
83553;DHT22;73510;50.866;5.420;2024-02-26T10:37:13;8.00;72.30
83553;DHT22;73510;50.866;5.420;2024-02-26T10:39:46;8.00;72.20
83553;DHT22;73510;50.866;5.420;2024-02-26T10:42:13;7.90;72.30
83553;DHT22;73510;50.866;5.420;2024-02-26T10:44:41;7.90;72.50
83553;DHT22;73510;50.866;5.420;2024-02-26T10:47:09;7.90;72.20
83553;DHT22;73510;50.866;5.420;2024-02-26T10:49:35;7.90;71.90
83553;DHT22;73510;50.866;5.420;2024-02-26T10:52:01;7.90;72.50
83553;DHT22;73510;50.866;5.420;2024-02-26T10:54:29;7.90;72.70
83553;DHT22;73510;50.866;5.420;2024-02-26T10:56:59;7.90;72.80
83553;DHT22;73510;50.866;5.420;2024-02-26T10:59:26;7.90;72.50
83553;DHT22;73510;50.866;5.420;2024-02-26T11:01:52;8.00;72.40
83553;DHT22;73510;50.866;5.420;2024-02-26T11:04:20;8.00;72.70
83553;DHT22;73510;50.866;5.420;2024-02-26T11:06:49;8.00;72.60
83553;DHT22;73510;50.866;5.420;2024-02-26T11:09:17;8.00;72.20
83553;DHT22;73510;50.866;5.420;2024-02-26T11:11:43;8.00;72.50
83553;DHT22;73510;50.866;5.420;2024-02-26T11:14:09;8.00;72.10
83553;DHT22;73510;50.866;5.420;2024-02-26T11:16:37;8.10;72.30
83553;DHT22;73510;50.866;5.420;2024-02-26T11:19:06;8.20;72.10
83553;DHT22;73510;50.866;5.420;2024-02-26T11:21:34;8.20;71.90
83553;DHT22;73510;50.866;5.420;2024-02-26T11:24:09;8.30;72.50
83553;DHT22;73510;50.866;5.420;2024-02-26T11:26:41;8.40;72.00
83553;DHT22;73510;50.866;5.420;2024-02-26T11:29:12;8.40;71.90
83553;DHT22;73510;50.866;5.420;2024-02-26T11:31:39;8.50;72.00
83553;DHT22;73510;50.866;5.420;2024-02-26T11:34:07;8.60;72.30
83553;DHT22;73510;50.866;5.420;2024-02-26T11:36:34;8.60;72.10
83553;DHT22;73510;50.866;5.420;2024-02-26T11:39:01;8.70;70.90
83553;DHT22;73510;50.866;5.420;2024-02-26T11:41:27;8.80;71.00
83553;DHT22;73510;50.866;5.420;2024-02-26T11:44:01;8.90;71.30
83553;DHT22;73510;50.866;5.420;2024-02-26T11:46:31;9.00;70.90
83553;DHT22;73510;50.866;5.420;2024-02-26T11:51:51;9.00;69.90
83553;DHT22;73510;50.866;5.420;2024-02-26T11:54:52;9.20;70.70
83553;DHT22;73510;50.866;5.420;2024-02-26T11:57:37;9.30;69.30
83553;DHT22;73510;50.866;5.420;2024-02-26T12:02:44;9.40;69.30
83553;DHT22;73510;50.866;5.420;2024-02-26T12:07:45;9.60;69.40
83553;DHT22;73510;50.866;5.420;2024-02-26T12:10:28;9.70;70.10
83553;DHT22;73510;50.866;5.420;2024-02-26T12:13:00;9.90;68.40
83553;DHT22;73510;50.866;5.420;2024-02-26T12:15:41;10.00;68.70
83553;DHT22;73510;50.866;5.420;2024-02-26T12:18:08;10.10;68.20
83553;DHT22;73510;50.866;5.420;2024-02-26T12:20:36;10.10;67.40
83553;DHT22;73510;50.866;5.420;2024-02-26T12:23:02;10.20;68.10
83553;DHT22;73510;50.866;5.420;2024-02-26T12:25:30;10.30;68.30
83553;DHT22;73510;50.866;5.420;2024-02-26T12:27:57;10.40;67.20
83553;DHT22;73510;50.866;5.420;2024-02-26T12:30:23;10.40;66.70
83553;DHT22;73510;50.866;5.420;2024-02-26T12:32:50;10.50;66.90
83553;DHT22;73510;50.866;5.420;2024-02-26T12:35:17;10.50;65.10
83553;DHT22;73510;50.866;5.420;2024-02-26T12:37:46;10.40;65.70
83553;DHT22;73510;50.866;5.420;2024-02-26T12:40:12;10.40;66.60
83553;DHT22;73510;50.866;5.420;2024-02-26T12:42:39;10.40;66.00
83553;DHT22;73510;50.866;5.420;2024-02-26T12:45:07;10.40;65.70
83553;DHT22;73510;50.866;5.420;2024-02-26T12:47:40;10.30;65.50
83553;DHT22;73510;50.866;5.420;2024-02-26T12:50:07;10.30;65.80
83553;DHT22;73510;50.866;5.420;2024-02-26T12:52:47;10.30;65.70
83553;DHT22;73510;50.866;5.420;2024-02-26T12:55:18;10.30;65.40
83553;DHT22;73510;50.866;5.420;2024-02-26T12:57:45;10.20;65.50
83553;DHT22;73510;50.866;5.420;2024-02-26T13:00:13;10.10;65.80
83553;DHT22;73510;50.866;5.420;2024-02-26T13:02:41;10.00;66.30
83553;DHT22;73510;50.866;5.420;2024-02-26T13:05:10;10.00;66.10
83553;DHT22;73510;50.866;5.420;2024-02-26T13:07:43;10.00;66.50
83553;DHT22;73510;50.866;5.420;2024-02-26T13:10:10;9.90;66.00
83553;DHT22;73510;50.866;5.420;2024-02-26T13:12:44;9.80;66.60
83553;DHT22;73510;50.866;5.420;2024-02-26T13:15:15;9.70;66.60
83553;DHT22;73510;50.866;5.420;2024-02-26T13:17:41;9.70;67.10
83553;DHT22;73510;50.866;5.420;2024-02-26T13:20:08;9.70;66.90
83553;DHT22;73510;50.866;5.420;2024-02-26T13:22:36;9.70;67.60
83553;DHT22;73510;50.866;5.420;2024-02-26T13:25:02;9.60;67.10
83553;DHT22;73510;50.866;5.420;2024-02-26T13:27:28;9.60;67.20
83553;DHT22;73510;50.866;5.420;2024-02-26T13:30:04;9.60;67.20
83553;DHT22;73510;50.866;5.420;2024-02-26T13:32:36;9.50;67.20
83553;DHT22;73510;50.866;5.420;2024-02-26T13:35:10;9.40;67.50
83553;DHT22;73510;50.866;5.420;2024-02-26T13:37:36;9.30;67.70
83553;DHT22;73510;50.866;5.420;2024-02-26T13:40:09;9.40;68.20
83553;DHT22;73510;50.866;5.420;2024-02-26T13:42:36;9.20;68.10
83553;DHT22;73510;50.866;5.420;2024-02-26T13:45:04;9.20;68.00
83553;DHT22;73510;50.866;5.420;2024-02-26T13:47:33;9.20;67.60
83553;DHT22;73510;50.866;5.420;2024-02-26T13:49:59;9.10;67.90
83553;DHT22;73510;50.866;5.420;2024-02-26T13:52:26;9.00;67.70
83553;DHT22;73510;50.866;5.420;2024-02-26T13:54:52;9.00;68.40
83553;DHT22;73510;50.866;5.420;2024-02-26T13:57:19;9.00;69.00
83553;DHT22;73510;50.866;5.420;2024-02-26T13:59:45;9.00;68.40
83553;DHT22;73510;50.866;5.420;2024-02-26T14:02:10;9.00;69.10
83553;DHT22;73510;50.866;5.420;2024-02-26T14:04:37;9.00;68.70
83553;DHT22;73510;50.866;5.420;2024-02-26T14:07:04;9.00;68.80
83553;DHT22;73510;50.866;5.420;2024-02-26T14:09:29;9.00;69.30
83553;DHT22;73510;50.866;5.420;2024-02-26T14:11:55;9.00;69.20
83553;DHT22;73510;50.866;5.420;2024-02-26T14:14:21;9.00;69.20
83553;DHT22;73510;50.866;5.420;2024-02-26T14:16:47;9.00;68.70
83553;DHT22;73510;50.866;5.420;2024-02-26T14:19:12;9.00;69.00
83553;DHT22;73510;50.866;5.420;2024-02-26T14:21:38;8.90;69.10
83553;DHT22;73510;50.866;5.420;2024-02-26T14:24:04;9.00;69.00
83553;DHT22;73510;50.866;5.420;2024-02-26T14:26:30;9.00;69.00
83553;DHT22;73510;50.866;5.420;2024-02-26T14:28:56;9.00;68.70
83553;DHT22;73510;50.866;5.420;2024-02-26T14:31:22;8.90;68.50
83553;DHT22;73510;50.866;5.420;2024-02-26T14:33:47;8.90;68.80
83553;DHT22;73510;50.866;5.420;2024-02-26T14:36:14;9.00;68.90
83553;DHT22;73510;50.866;5.420;2024-02-26T14:38:39;8.90;68.30
83553;DHT22;73510;50.866;5.420;2024-02-26T14:41:05;8.90;69.00
83553;DHT22;73510;50.866;5.420;2024-02-26T14:43:32;8.90;68.70
83553;DHT22;73510;50.866;5.420;2024-02-26T14:45:58;8.90;69.20
83553;DHT22;73510;50.866;5.420;2024-02-26T14:48:24;8.80;69.00
83553;DHT22;73510;50.866;5.420;2024-02-26T14:50:50;8.80;69.20
83553;DHT22;73510;50.866;5.420;2024-02-26T14:53:16;8.80;68.90
83553;DHT22;73510;50.866;5.420;2024-02-26T14:55:42;8.80;68.20
83553;DHT22;73510;50.866;5.420;2024-02-26T14:58:08;8.70;68.00
83553;DHT22;73510;50.866;5.420;2024-02-26T15:00:36;8.70;68.60
83553;DHT22;73510;50.866;5.420;2024-02-26T15:03:02;8.80;68.30
83553;DHT22;73510;50.866;5.420;2024-02-26T15:05:29;8.80;68.50
83553;DHT22;73510;50.866;5.420;2024-02-26T15:07:55;8.80;68.40
83553;DHT22;73510;50.866;5.420;2024-02-26T15:10:20;8.80;68.20
83553;DHT22;73510;50.866;5.420;2024-02-26T15:12:46;8.80;68.10
83553;DHT22;73510;50.866;5.420;2024-02-26T15:15:14;8.70;68.30
83553;DHT22;73510;50.866;5.420;2024-02-26T15:17:39;8.70;68.50
83553;DHT22;73510;50.866;5.420;2024-02-26T15:20:05;8.80;68.20
83553;DHT22;73510;50.866;5.420;2024-02-26T15:22:33;8.80;68.20
83553;DHT22;73510;50.866;5.420;2024-02-26T15:24:59;8.80;68.20
83553;DHT22;73510;50.866;5.420;2024-02-26T15:27:25;8.80;68.10
83553;DHT22;73510;50.866;5.420;2024-02-26T15:29:51;8.80;68.30
83553;DHT22;73510;50.866;5.420;2024-02-26T15:32:23;8.80;67.70
83553;DHT22;73510;50.866;5.420;2024-02-26T15:34:50;8.90;68.00
83553;DHT22;73510;50.866;5.420;2024-02-26T15:37:16;8.90;67.40
83553;DHT22;73510;50.866;5.420;2024-02-26T15:39:42;8.80;67.60
83553;DHT22;73510;50.866;5.420;2024-02-26T15:42:07;8.80;67.80
83553;DHT22;73510;50.866;5.420;2024-02-26T15:44:33;8.80;68.00
83553;DHT22;73510;50.866;5.420;2024-02-26T15:46:59;8.80;67.70
83553;DHT22;73510;50.866;5.420;2024-02-26T15:49:25;8.80;67.80